sensor_id;sensor_type;location;lat;lon;timestamp;P1;durP1;ratioP1;P2;durP2;ratioP2
20966;SDS011;10642;50.682;18.510;2022-09-09T00:00:39;16.77;;;11.00;;
20966;SDS011;10642;50.682;18.510;2022-09-09T00:05:52;20.20;;;12.43;;
20966;SDS011;10642;50.682;18.510;2022-09-09T00:08:25;19.00;;;11.80;;
20966;SDS011;10642;50.682;18.510;2022-09-09T00:10:58;24.90;;;13.07;;
20966;SDS011;10642;50.682;18.510;2022-09-09T00:16:30;22.63;;;13.40;;
20966;SDS011;10642;50.682;18.510;2022-09-09T00:21:46;23.03;;;12.67;;
20966;SDS011;10642;50.682;18.510;2022-09-09T00:24:29;19.03;;;11.93;;
20966;SDS011;10642;50.682;18.510;2022-09-09T00:27:06;19.77;;;11.80;;
20966;SDS011;10642;50.682;18.510;2022-09-09T00:29:36;19.27;;;11.50;;
20966;SDS011;10642;50.682;18.510;2022-09-09T00:32:11;16.90;;;10.30;;
20966;SDS011;10642;50.682;18.510;2022-09-09T00:34:42;15.87;;;10.77;;
20966;SDS011;10642;50.682;18.510;2022-09-09T00:37:11;16.80;;;11.10;;
20966;SDS011;10642;50.682;18.510;2022-09-09T00:39:39;19.67;;;12.07;;
20966;SDS011;10642;50.682;18.510;2022-09-09T00:48:12;23.73;;;12.70;;
20966;SDS011;10642;50.682;18.510;2022-09-09T00:50:53;23.77;;;12.57;;
20966;SDS011;10642;50.682;18.510;2022-09-09T00:58:34;17.17;;;11.17;;
20966;SDS011;10642;50.682;18.510;2022-09-09T01:01:11;19.27;;;12.17;;
20966;SDS011;10642;50.682;18.510;2022-09-09T01:03:47;20.53;;;12.83;;
20966;SDS011;10642;50.682;18.510;2022-09-09T01:11:25;21.43;;;12.60;;
20966;SDS011;10642;50.682;18.510;2022-09-09T01:13:58;22.57;;;13.53;;
20966;SDS011;10642;50.682;18.510;2022-09-09T01:16:29;21.00;;;12.00;;
20966;SDS011;10642;50.682;18.510;2022-09-09T01:18:58;20.03;;;12.13;;
20966;SDS011;10642;50.682;18.510;2022-09-09T01:26:39;20.13;;;12.53;;
20966;SDS011;10642;50.682;18.510;2022-09-09T01:29:15;22.20;;;12.43;;
20966;SDS011;10642;50.682;18.510;2022-09-09T01:31:56;20.80;;;12.43;;
20966;SDS011;10642;50.682;18.510;2022-09-09T01:34:31;21.87;;;13.40;;
20966;SDS011;10642;50.682;18.510;2022-09-09T01:37:04;21.10;;;13.20;;
20966;SDS011;10642;50.682;18.510;2022-09-09T01:39:35;17.60;;;12.20;;
20966;SDS011;10642;50.682;18.510;2022-09-09T01:42:08;21.10;;;12.17;;
20966;SDS011;10642;50.682;18.510;2022-09-09T01:44:35;18.87;;;11.87;;
20966;SDS011;10642;50.682;18.510;2022-09-09T01:47:04;20.03;;;12.10;;
20966;SDS011;10642;50.682;18.510;2022-09-09T01:49:31;20.20;;;12.33;;
20966;SDS011;10642;50.682;18.510;2022-09-09T01:52:05;14.67;;;10.97;;
20966;SDS011;10642;50.682;18.510;2022-09-09T01:54:36;17.93;;;11.67;;
20966;SDS011;10642;50.682;18.510;2022-09-09T01:57:11;19.43;;;12.30;;
20966;SDS011;10642;50.682;18.510;2022-09-09T02:00:16;16.90;;;11.53;;
20966;SDS011;10642;50.682;18.510;2022-09-09T02:07:54;13.53;;;9.73;;
20966;SDS011;10642;50.682;18.510;2022-09-09T02:10:37;16.27;;;9.40;;
20966;SDS011;10642;50.682;18.510;2022-09-09T02:13:14;13.87;;;9.20;;
20966;SDS011;10642;50.682;18.510;2022-09-09T02:18:09;11.57;;;8.73;;
20966;SDS011;10642;50.682;18.510;2022-09-09T02:20:38;12.47;;;7.70;;
20966;SDS011;10642;50.682;18.510;2022-09-09T02:23:05;15.03;;;9.67;;
20966;SDS011;10642;50.682;18.510;2022-09-09T02:25:36;11.93;;;9.00;;
20966;SDS011;10642;50.682;18.510;2022-09-09T02:28:16;14.03;;;8.83;;
20966;SDS011;10642;50.682;18.510;2022-09-09T02:30:44;11.50;;;8.47;;
20966;SDS011;10642;50.682;18.510;2022-09-09T02:33:15;15.37;;;8.53;;
20966;SDS011;10642;50.682;18.510;2022-09-09T02:35:48;10.70;;;8.03;;
20966;SDS011;10642;50.682;18.510;2022-09-09T02:38:20;10.97;;;7.20;;
20966;SDS011;10642;50.682;18.510;2022-09-09T02:40:56;11.40;;;7.90;;
20966;SDS011;10642;50.682;18.510;2022-09-09T02:43:24;11.33;;;6.83;;
20966;SDS011;10642;50.682;18.510;2022-09-09T02:45:56;10.07;;;8.20;;
20966;SDS011;10642;50.682;18.510;2022-09-09T02:48:30;11.33;;;7.70;;
20966;SDS011;10642;50.682;18.510;2022-09-09T02:51:02;11.70;;;7.97;;
20966;SDS011;10642;50.682;18.510;2022-09-09T02:53:43;10.13;;;7.73;;
20966;SDS011;10642;50.682;18.510;2022-09-09T02:56:15;10.40;;;7.87;;
20966;SDS011;10642;50.682;18.510;2022-09-09T02:58:45;10.10;;;7.20;;
20966;SDS011;10642;50.682;18.510;2022-09-09T03:01:13;14.70;;;7.07;;
20966;SDS011;10642;50.682;18.510;2022-09-09T03:03:41;11.63;;;7.23;;
20966;SDS011;10642;50.682;18.510;2022-09-09T03:06:12;11.47;;;7.17;;
20966;SDS011;10642;50.682;18.510;2022-09-09T03:08:44;10.50;;;7.03;;
20966;SDS011;10642;50.682;18.510;2022-09-09T03:11:20;13.03;;;7.23;;
20966;SDS011;10642;50.682;18.510;2022-09-09T03:13:47;10.50;;;6.70;;
20966;SDS011;10642;50.682;18.510;2022-09-09T03:16:15;7.83;;;6.50;;
20966;SDS011;10642;50.682;18.510;2022-09-09T03:18:46;9.07;;;6.97;;
20966;SDS011;10642;50.682;18.510;2022-09-09T03:21:13;8.83;;;6.90;;
20966;SDS011;10642;50.682;18.510;2022-09-09T03:23:41;10.60;;;7.20;;
20966;SDS011;10642;50.682;18.510;2022-09-09T03:26:08;10.97;;;7.20;;
20966;SDS011;10642;50.682;18.510;2022-09-09T03:28:42;10.33;;;5.87;;
20966;SDS011;10642;50.682;18.510;2022-09-09T03:31:10;11.70;;;6.57;;
20966;SDS011;10642;50.682;18.510;2022-09-09T03:33:39;7.20;;;5.17;;
20966;SDS011;10642;50.682;18.510;2022-09-09T03:36:11;7.97;;;5.47;;
20966;SDS011;10642;50.682;18.510;2022-09-09T03:38:38;6.03;;;4.80;;
20966;SDS011;10642;50.682;18.510;2022-09-09T03:41:06;5.77;;;4.53;;
20966;SDS011;10642;50.682;18.510;2022-09-09T03:43:35;6.00;;;4.63;;
20966;SDS011;10642;50.682;18.510;2022-09-09T03:46:03;7.43;;;5.40;;
20966;SDS011;10642;50.682;18.510;2022-09-09T03:48:30;6.00;;;5.00;;
20966;SDS011;10642;50.682;18.510;2022-09-09T03:50:58;6.77;;;4.17;;
20966;SDS011;10642;50.682;18.510;2022-09-09T03:53:30;5.90;;;4.37;;
20966;SDS011;10642;50.682;18.510;2022-09-09T03:55:57;9.17;;;4.57;;
20966;SDS011;10642;50.682;18.510;2022-09-09T03:58:28;8.67;;;4.70;;
20966;SDS011;10642;50.682;18.510;2022-09-09T04:01:11;6.17;;;3.23;;
20966;SDS011;10642;50.682;18.510;2022-09-09T04:03:41;5.00;;;3.00;;
20966;SDS011;10642;50.682;18.510;2022-09-09T04:06:09;7.93;;;3.67;;
20966;SDS011;10642;50.682;18.510;2022-09-09T04:08:37;4.63;;;3.43;;
20966;SDS011;10642;50.682;18.510;2022-09-09T04:11:06;5.53;;;3.87;;
20966;SDS011;10642;50.682;18.510;2022-09-09T04:13:35;5.20;;;3.57;;
20966;SDS011;10642;50.682;18.510;2022-09-09T04:16:02;3.83;;;3.30;;
20966;SDS011;10642;50.682;18.510;2022-09-09T04:18:32;5.40;;;4.07;;
20966;SDS011;10642;50.682;18.510;2022-09-09T04:21:00;5.50;;;4.33;;
20966;SDS011;10642;50.682;18.510;2022-09-09T04:23:29;10.00;;;5.60;;
20966;SDS011;10642;50.682;18.510;2022-09-09T04:25:58;8.07;;;6.10;;
20966;SDS011;10642;50.682;18.510;2022-09-09T04:28:29;7.27;;;5.13;;
20966;SDS011;10642;50.682;18.510;2022-09-09T04:31:03;6.80;;;5.20;;
20966;SDS011;10642;50.682;18.510;2022-09-09T04:33:32;5.13;;;3.87;;
20966;SDS011;10642;50.682;18.510;2022-09-09T04:36:05;7.97;;;5.33;;
20966;SDS011;10642;50.682;18.510;2022-09-09T04:38:32;7.40;;;4.57;;
20966;SDS011;10642;50.682;18.510;2022-09-09T04:41:00;3.97;;;3.17;;
20966;SDS011;10642;50.682;18.510;2022-09-09T04:43:28;5.97;;;4.50;;
20966;SDS011;10642;50.682;18.510;2022-09-09T04:45:58;4.30;;;3.00;;
20966;SDS011;10642;50.682;18.510;2022-09-09T04:48:26;2.97;;;2.10;;
20966;SDS011;10642;50.682;18.510;2022-09-09T04:50:57;2.80;;;2.47;;
20966;SDS011;10642;50.682;18.510;2022-09-09T04:53:25;2.17;;;1.97;;
20966;SDS011;10642;50.682;18.510;2022-09-09T04:56:00;4.93;;;3.00;;
20966;SDS011;10642;50.682;18.510;2022-09-09T04:58:29;7.00;;;4.93;;
20966;SDS011;10642;50.682;18.510;2022-09-09T05:01:02;8.10;;;6.30;;
20966;SDS011;10642;50.682;18.510;2022-09-09T05:03:29;10.60;;;6.73;;
20966;SDS011;10642;50.682;18.510;2022-09-09T05:06:30;9.97;;;6.97;;
20966;SDS011;10642;50.682;18.510;2022-09-09T05:08:54;10.57;;;6.83;;
20966;SDS011;10642;50.682;18.510;2022-09-09T05:11:25;9.20;;;5.50;;
20966;SDS011;10642;50.682;18.510;2022-09-09T05:13:56;13.07;;;6.23;;
20966;SDS011;10642;50.682;18.510;2022-09-09T05:16:23;7.00;;;5.67;;
20966;SDS011;10642;50.682;18.510;2022-09-09T05:18:50;6.80;;;5.23;;
20966;SDS011;10642;50.682;18.510;2022-09-09T05:21:19;7.00;;;5.00;;
20966;SDS011;10642;50.682;18.510;2022-09-09T05:23:46;9.73;;;6.20;;
20966;SDS011;10642;50.682;18.510;2022-09-09T05:26:15;6.73;;;5.70;;
20966;SDS011;10642;50.682;18.510;2022-09-09T05:28:46;11.00;;;6.57;;
20966;SDS011;10642;50.682;18.510;2022-09-09T05:31:14;9.27;;;7.03;;
20966;SDS011;10642;50.682;18.510;2022-09-09T05:33:45;8.30;;;6.60;;
20966;SDS011;10642;50.682;18.510;2022-09-09T05:36:14;11.03;;;7.40;;
20966;SDS011;10642;50.682;18.510;2022-09-09T05:38:42;7.77;;;6.97;;
20966;SDS011;10642;50.682;18.510;2022-09-09T05:41:10;11.83;;;7.37;;
20966;SDS011;10642;50.682;18.510;2022-09-09T05:43:38;8.67;;;7.17;;
20966;SDS011;10642;50.682;18.510;2022-09-09T05:46:06;11.03;;;8.37;;
20966;SDS011;10642;50.682;18.510;2022-09-09T05:48:35;11.50;;;8.20;;
20966;SDS011;10642;50.682;18.510;2022-09-09T05:51:04;9.73;;;7.73;;
20966;SDS011;10642;50.682;18.510;2022-09-09T05:53:33;11.93;;;9.20;;
20966;SDS011;10642;50.682;18.510;2022-09-09T05:56:05;9.30;;;7.63;;
20966;SDS011;10642;50.682;18.510;2022-09-09T05:58:34;9.80;;;7.70;;
20966;SDS011;10642;50.682;18.510;2022-09-09T06:01:08;9.97;;;7.43;;
20966;SDS011;10642;50.682;18.510;2022-09-09T06:03:37;7.83;;;6.57;;
20966;SDS011;10642;50.682;18.510;2022-09-09T06:06:08;8.57;;;5.67;;
20966;SDS011;10642;50.682;18.510;2022-09-09T06:08:37;11.27;;;6.73;;
20966;SDS011;10642;50.682;18.510;2022-09-09T06:11:09;9.37;;;5.93;;
20966;SDS011;10642;50.682;18.510;2022-09-09T06:13:36;9.60;;;6.50;;
20966;SDS011;10642;50.682;18.510;2022-09-09T06:16:07;6.80;;;6.10;;
20966;SDS011;10642;50.682;18.510;2022-09-09T06:18:35;8.00;;;5.70;;
20966;SDS011;10642;50.682;18.510;2022-09-09T06:21:02;9.23;;;6.23;;
20966;SDS011;10642;50.682;18.510;2022-09-09T06:23:33;6.67;;;5.63;;
20966;SDS011;10642;50.682;18.510;2022-09-09T06:26:08;9.47;;;5.43;;
20966;SDS011;10642;50.682;18.510;2022-09-09T06:28:36;6.77;;;5.50;;
20966;SDS011;10642;50.682;18.510;2022-09-09T06:31:04;8.57;;;5.53;;
20966;SDS011;10642;50.682;18.510;2022-09-09T06:33:32;8.60;;;5.87;;
20966;SDS011;10642;50.682;18.510;2022-09-09T06:36:02;7.73;;;5.67;;
20966;SDS011;10642;50.682;18.510;2022-09-09T06:38:30;11.63;;;6.00;;
20966;SDS011;10642;50.682;18.510;2022-09-09T06:40:59;9.00;;;5.00;;
20966;SDS011;10642;50.682;18.510;2022-09-09T06:43:27;8.60;;;5.30;;
20966;SDS011;10642;50.682;18.510;2022-09-09T06:45:58;6.60;;;5.60;;
20966;SDS011;10642;50.682;18.510;2022-09-09T06:48:26;5.57;;;4.47;;
20966;SDS011;10642;50.682;18.510;2022-09-09T06:53:29;5.97;;;5.23;;
20966;SDS011;10642;50.682;18.510;2022-09-09T06:55:57;5.23;;;4.37;;
20966;SDS011;10642;50.682;18.510;2022-09-09T06:58:24;6.67;;;4.70;;
20966;SDS011;10642;50.682;18.510;2022-09-09T07:00:52;5.67;;;4.87;;
20966;SDS011;10642;50.682;18.510;2022-09-09T07:03:19;7.27;;;5.07;;
20966;SDS011;10642;50.682;18.510;2022-09-09T07:05:53;5.87;;;4.40;;
20966;SDS011;10642;50.682;18.510;2022-09-09T07:08:20;5.57;;;4.77;;
20966;SDS011;10642;50.682;18.510;2022-09-09T07:10:47;6.90;;;4.63;;
20966;SDS011;10642;50.682;18.510;2022-09-09T07:13:14;6.50;;;5.30;;
20966;SDS011;10642;50.682;18.510;2022-09-09T07:15:42;6.93;;;5.07;;
20966;SDS011;10642;50.682;18.510;2022-09-09T07:18:10;6.17;;;5.57;;
20966;SDS011;10642;50.682;18.510;2022-09-09T07:20:36;6.43;;;5.70;;
20966;SDS011;10642;50.682;18.510;2022-09-09T07:23:03;9.70;;;5.40;;
20966;SDS011;10642;50.682;18.510;2022-09-09T07:25:30;7.50;;;5.20;;
20966;SDS011;10642;50.682;18.510;2022-09-09T07:27:57;10.40;;;6.07;;
20966;SDS011;10642;50.682;18.510;2022-09-09T07:30:24;10.07;;;5.00;;
20966;SDS011;10642;50.682;18.510;2022-09-09T07:32:54;6.63;;;5.10;;
20966;SDS011;10642;50.682;18.510;2022-09-09T07:35:23;5.17;;;4.67;;
20966;SDS011;10642;50.682;18.510;2022-09-09T07:37:50;7.37;;;4.80;;
20966;SDS011;10642;50.682;18.510;2022-09-09T07:40:18;5.60;;;4.10;;
20966;SDS011;10642;50.682;18.510;2022-09-09T07:42:48;7.03;;;4.30;;
20966;SDS011;10642;50.682;18.510;2022-09-09T07:45:16;7.00;;;4.50;;
20966;SDS011;10642;50.682;18.510;2022-09-09T07:47:43;5.33;;;4.03;;
20966;SDS011;10642;50.682;18.510;2022-09-09T07:50:10;5.47;;;4.53;;
20966;SDS011;10642;50.682;18.510;2022-09-09T07:52:38;4.07;;;3.23;;
20966;SDS011;10642;50.682;18.510;2022-09-09T07:55:06;6.00;;;3.70;;
20966;SDS011;10642;50.682;18.510;2022-09-09T07:57:33;6.03;;;3.83;;
20966;SDS011;10642;50.682;18.510;2022-09-09T08:00:01;6.03;;;3.67;;
20966;SDS011;10642;50.682;18.510;2022-09-09T08:02:37;6.60;;;3.63;;
20966;SDS011;10642;50.682;18.510;2022-09-09T08:05:04;4.13;;;3.73;;
20966;SDS011;10642;50.682;18.510;2022-09-09T08:07:32;4.23;;;3.27;;
20966;SDS011;10642;50.682;18.510;2022-09-09T08:09:59;8.10;;;3.90;;
20966;SDS011;10642;50.682;18.510;2022-09-09T08:12:30;4.20;;;3.43;;
20966;SDS011;10642;50.682;18.510;2022-09-09T08:14:57;5.37;;;2.93;;
20966;SDS011;10642;50.682;18.510;2022-09-09T08:17:28;5.07;;;2.77;;
20966;SDS011;10642;50.682;18.510;2022-09-09T08:19:57;4.57;;;3.50;;
20966;SDS011;10642;50.682;18.510;2022-09-09T08:22:27;3.00;;;2.33;;
20966;SDS011;10642;50.682;18.510;2022-09-09T08:24:54;2.97;;;2.60;;
20966;SDS011;10642;50.682;18.510;2022-09-09T08:27:22;8.80;;;3.20;;
20966;SDS011;10642;50.682;18.510;2022-09-09T08:29:50;6.67;;;3.03;;
20966;SDS011;10642;50.682;18.510;2022-09-09T08:32:17;4.30;;;3.37;;
20966;SDS011;10642;50.682;18.510;2022-09-09T08:34:45;4.40;;;3.53;;
20966;SDS011;10642;50.682;18.510;2022-09-09T08:37:18;3.80;;;2.40;;
20966;SDS011;10642;50.682;18.510;2022-09-09T08:39:46;6.13;;;3.03;;
20966;SDS011;10642;50.682;18.510;2022-09-09T08:52:43;6.33;;;2.50;;
20966;SDS011;10642;50.682;18.510;2022-09-09T08:57:39;3.30;;;2.93;;
20966;SDS011;10642;50.682;18.510;2022-09-09T09:00:07;3.63;;;2.40;;
20966;SDS011;10642;50.682;18.510;2022-09-09T09:02:48;4.97;;;2.83;;
20966;SDS011;10642;50.682;18.510;2022-09-09T09:05:23;4.83;;;2.63;;
20966;SDS011;10642;50.682;18.510;2022-09-09T09:13:14;4.87;;;2.80;;
20966;SDS011;10642;50.682;18.510;2022-09-09T09:15:44;4.37;;;2.70;;
20966;SDS011;10642;50.682;18.510;2022-09-09T09:18:14;2.83;;;2.27;;
20966;SDS011;10642;50.682;18.510;2022-09-09T09:23:28;3.93;;;1.90;;
20966;SDS011;10642;50.682;18.510;2022-09-09T09:25:59;5.27;;;2.40;;
20966;SDS011;10642;50.682;18.510;2022-09-09T09:28:29;3.80;;;2.40;;
20966;SDS011;10642;50.682;18.510;2022-09-09T09:33:41;2.67;;;2.00;;
20966;SDS011;10642;50.682;18.510;2022-09-09T09:36:11;2.90;;;2.23;;
20966;SDS011;10642;50.682;18.510;2022-09-09T09:39:02;3.63;;;2.30;;
20966;SDS011;10642;50.682;18.510;2022-09-09T09:41:49;4.03;;;2.07;;
20966;SDS011;10642;50.682;18.510;2022-09-09T09:44:30;1.70;;;1.60;;
20966;SDS011;10642;50.682;18.510;2022-09-09T09:47:19;4.13;;;3.20;;
20966;SDS011;10642;50.682;18.510;2022-09-09T09:50:16;3.20;;;2.17;;
20966;SDS011;10642;50.682;18.510;2022-09-09T09:52:53;3.00;;;2.37;;
20966;SDS011;10642;50.682;18.510;2022-09-09T09:55:21;2.00;;;1.80;;
20966;SDS011;10642;50.682;18.510;2022-09-09T09:57:52;3.43;;;2.13;;
20966;SDS011;10642;50.682;18.510;2022-09-09T10:00:20;3.27;;;1.83;;
20966;SDS011;10642;50.682;18.510;2022-09-09T10:02:59;2.50;;;1.80;;
20966;SDS011;10642;50.682;18.510;2022-09-09T10:05:30;6.43;;;2.10;;
20966;SDS011;10642;50.682;18.510;2022-09-09T10:13:29;2.23;;;1.67;;
20966;SDS011;10642;50.682;18.510;2022-09-09T10:18:36;5.13;;;2.07;;
20966;SDS011;10642;50.682;18.510;2022-09-09T10:24:13;2.63;;;1.70;;
20966;SDS011;10642;50.682;18.510;2022-09-09T10:29:02;1.93;;;1.37;;
20966;SDS011;10642;50.682;18.510;2022-09-09T10:34:11;3.23;;;2.23;;
20966;SDS011;10642;50.682;18.510;2022-09-09T10:36:47;5.10;;;2.90;;
20966;SDS011;10642;50.682;18.510;2022-09-09T10:41:54;3.20;;;2.27;;
20966;SDS011;10642;50.682;18.510;2022-09-09T10:54:47;3.63;;;2.77;;
20966;SDS011;10642;50.682;18.510;2022-09-09T10:57:33;5.80;;;2.50;;
20966;SDS011;10642;50.682;18.510;2022-09-09T11:00:06;3.60;;;2.13;;
20966;SDS011;10642;50.682;18.510;2022-09-09T11:02:41;4.87;;;2.37;;
20966;SDS011;10642;50.682;18.510;2022-09-09T11:07:41;4.97;;;2.00;;
20966;SDS011;10642;50.682;18.510;2022-09-09T11:10:21;5.60;;;2.20;;
20966;SDS011;10642;50.682;18.510;2022-09-09T11:12:53;5.37;;;1.70;;
20966;SDS011;10642;50.682;18.510;2022-09-09T11:15:23;4.17;;;2.33;;
20966;SDS011;10642;50.682;18.510;2022-09-09T11:17:53;3.70;;;2.33;;
20966;SDS011;10642;50.682;18.510;2022-09-09T11:20:21;3.30;;;2.40;;
20966;SDS011;10642;50.682;18.510;2022-09-09T11:22:59;5.30;;;2.87;;
20966;SDS011;10642;50.682;18.510;2022-09-09T11:25:32;4.00;;;2.60;;
20966;SDS011;10642;50.682;18.510;2022-09-09T11:36:37;3.37;;;2.60;;
20966;SDS011;10642;50.682;18.510;2022-09-09T11:41:52;2.97;;;2.37;;
20966;SDS011;10642;50.682;18.510;2022-09-09T11:44:25;3.37;;;2.37;;
20966;SDS011;10642;50.682;18.510;2022-09-09T11:46:53;3.30;;;2.63;;
20966;SDS011;10642;50.682;18.510;2022-09-09T11:49:28;3.77;;;2.80;;
20966;SDS011;10642;50.682;18.510;2022-09-09T11:51:55;5.97;;;3.10;;
20966;SDS011;10642;50.682;18.510;2022-09-09T11:54:29;7.73;;;2.73;;
20966;SDS011;10642;50.682;18.510;2022-09-09T11:56:57;6.97;;;3.50;;
20966;SDS011;10642;50.682;18.510;2022-09-09T12:01:55;2.77;;;1.90;;
20966;SDS011;10642;50.682;18.510;2022-09-09T12:07:37;2.10;;;1.77;;
20966;SDS011;10642;50.682;18.510;2022-09-09T12:17:09;4.37;;;2.63;;
20966;SDS011;10642;50.682;18.510;2022-09-09T12:19:36;4.63;;;2.30;;
20966;SDS011;10642;50.682;18.510;2022-09-09T12:24:54;8.30;;;2.43;;
20966;SDS011;10642;50.682;18.510;2022-09-09T12:27:31;5.43;;;2.83;;
20966;SDS011;10642;50.682;18.510;2022-09-09T12:32:30;5.23;;;2.30;;
20966;SDS011;10642;50.682;18.510;2022-09-09T12:35:39;3.87;;;2.40;;
20966;SDS011;10642;50.682;18.510;2022-09-09T12:42:42;3.00;;;1.77;;
20966;SDS011;10642;50.682;18.510;2022-09-09T12:45:16;3.73;;;1.80;;
20966;SDS011;10642;50.682;18.510;2022-09-09T12:50:33;3.63;;;2.03;;
20966;SDS011;10642;50.682;18.510;2022-09-09T12:53:07;3.80;;;1.53;;
20966;SDS011;10642;50.682;18.510;2022-09-09T12:55:37;7.50;;;2.47;;
20966;SDS011;10642;50.682;18.510;2022-09-09T12:58:05;3.77;;;1.70;;
20966;SDS011;10642;50.682;18.510;2022-09-09T13:00:33;3.03;;;2.20;;
20966;SDS011;10642;50.682;18.510;2022-09-09T13:03:02;6.50;;;2.20;;
20966;SDS011;10642;50.682;18.510;2022-09-09T13:05:36;8.03;;;1.87;;
20966;SDS011;10642;50.682;18.510;2022-09-09T13:08:04;3.00;;;1.60;;
20966;SDS011;10642;50.682;18.510;2022-09-09T13:10:35;2.90;;;1.70;;
20966;SDS011;10642;50.682;18.510;2022-09-09T13:13:20;4.00;;;1.60;;
20966;SDS011;10642;50.682;18.510;2022-09-09T13:15:48;5.20;;;1.97;;
20966;SDS011;10642;50.682;18.510;2022-09-09T13:18:17;2.97;;;1.67;;
20966;SDS011;10642;50.682;18.510;2022-09-09T13:20:48;4.43;;;2.10;;
20966;SDS011;10642;50.682;18.510;2022-09-09T13:23:15;2.63;;;1.53;;
20966;SDS011;10642;50.682;18.510;2022-09-09T13:25:52;4.47;;;1.50;;
20966;SDS011;10642;50.682;18.510;2022-09-09T13:28:20;4.33;;;1.60;;
20966;SDS011;10642;50.682;18.510;2022-09-09T13:30:58;2.00;;;1.40;;
20966;SDS011;10642;50.682;18.510;2022-09-09T13:36:03;2.13;;;1.47;;
20966;SDS011;10642;50.682;18.510;2022-09-09T13:38:33;3.90;;;1.93;;
20966;SDS011;10642;50.682;18.510;2022-09-09T13:41:06;2.87;;;1.57;;
20966;SDS011;10642;50.682;18.510;2022-09-09T13:43:37;5.13;;;1.70;;
20966;SDS011;10642;50.682;18.510;2022-09-09T13:46:20;5.57;;;1.33;;
20966;SDS011;10642;50.682;18.510;2022-09-09T13:48:57;2.67;;;1.40;;
20966;SDS011;10642;50.682;18.510;2022-09-09T13:51:34;3.47;;;1.60;;
20966;SDS011;10642;50.682;18.510;2022-09-09T13:54:05;3.43;;;1.43;;
20966;SDS011;10642;50.682;18.510;2022-09-09T13:56:33;3.13;;;1.73;;
20966;SDS011;10642;50.682;18.510;2022-09-09T13:59:00;1.97;;;1.33;;
20966;SDS011;10642;50.682;18.510;2022-09-09T14:01:27;7.10;;;1.60;;
20966;SDS011;10642;50.682;18.510;2022-09-09T14:03:55;2.23;;;1.53;;
20966;SDS011;10642;50.682;18.510;2022-09-09T14:06:22;3.07;;;1.40;;
20966;SDS011;10642;50.682;18.510;2022-09-09T14:08:50;2.73;;;1.53;;
20966;SDS011;10642;50.682;18.510;2022-09-09T14:11:17;3.20;;;1.80;;
20966;SDS011;10642;50.682;18.510;2022-09-09T14:13:44;4.57;;;1.50;;
20966;SDS011;10642;50.682;18.510;2022-09-09T14:16:11;4.07;;;1.93;;
20966;SDS011;10642;50.682;18.510;2022-09-09T14:18:38;4.93;;;1.90;;
20966;SDS011;10642;50.682;18.510;2022-09-09T14:21:05;3.63;;;1.67;;
20966;SDS011;10642;50.682;18.510;2022-09-09T14:23:32;4.77;;;1.50;;
20966;SDS011;10642;50.682;18.510;2022-09-09T14:25:59;4.67;;;1.47;;
20966;SDS011;10642;50.682;18.510;2022-09-09T14:28:26;4.40;;;1.67;;
20966;SDS011;10642;50.682;18.510;2022-09-09T14:31:14;2.60;;;1.50;;
20966;SDS011;10642;50.682;18.510;2022-09-09T14:33:44;3.83;;;1.67;;
20966;SDS011;10642;50.682;18.510;2022-09-09T14:36:11;5.53;;;1.47;;
20966;SDS011;10642;50.682;18.510;2022-09-09T14:38:38;3.50;;;2.03;;
20966;SDS011;10642;50.682;18.510;2022-09-09T14:41:06;5.27;;;1.80;;
20966;SDS011;10642;50.682;18.510;2022-09-09T14:43:33;6.97;;;2.20;;
20966;SDS011;10642;50.682;18.510;2022-09-09T14:46:10;5.57;;;1.77;;
20966;SDS011;10642;50.682;18.510;2022-09-09T14:48:37;4.37;;;2.00;;
20966;SDS011;10642;50.682;18.510;2022-09-09T14:51:09;2.97;;;1.70;;
20966;SDS011;10642;50.682;18.510;2022-09-09T14:53:36;5.77;;;1.53;;
20966;SDS011;10642;50.682;18.510;2022-09-09T14:56:09;6.03;;;1.80;;
20966;SDS011;10642;50.682;18.510;2022-09-09T14:58:37;3.77;;;1.43;;
20966;SDS011;10642;50.682;18.510;2022-09-09T15:01:05;1.70;;;1.20;;
20966;SDS011;10642;50.682;18.510;2022-09-09T15:03:32;3.20;;;1.43;;
20966;SDS011;10642;50.682;18.510;2022-09-09T15:06:04;2.67;;;1.80;;
20966;SDS011;10642;50.682;18.510;2022-09-09T15:08:31;4.30;;;1.50;;
20966;SDS011;10642;50.682;18.510;2022-09-09T15:10:58;3.53;;;1.60;;
20966;SDS011;10642;50.682;18.510;2022-09-09T15:13:25;1.53;;;1.30;;
20966;SDS011;10642;50.682;18.510;2022-09-09T15:15:52;4.13;;;1.80;;
20966;SDS011;10642;50.682;18.510;2022-09-09T15:18:21;4.07;;;1.70;;
20966;SDS011;10642;50.682;18.510;2022-09-09T15:20:47;4.23;;;1.63;;
20966;SDS011;10642;50.682;18.510;2022-09-09T15:23:15;3.90;;;1.57;;
20966;SDS011;10642;50.682;18.510;2022-09-09T15:25:50;3.07;;;1.40;;
20966;SDS011;10642;50.682;18.510;2022-09-09T15:28:17;8.00;;;1.77;;
20966;SDS011;10642;50.682;18.510;2022-09-09T15:30:46;3.30;;;1.63;;
20966;SDS011;10642;50.682;18.510;2022-09-09T15:33:14;9.63;;;3.50;;
20966;SDS011;10642;50.682;18.510;2022-09-09T15:35:40;4.40;;;2.40;;
20966;SDS011;10642;50.682;18.510;2022-09-09T15:38:07;3.70;;;1.60;;
20966;SDS011;10642;50.682;18.510;2022-09-09T15:40:34;2.70;;;1.90;;
20966;SDS011;10642;50.682;18.510;2022-09-09T15:43:01;4.10;;;1.77;;
20966;SDS011;10642;50.682;18.510;2022-09-09T15:45:29;4.93;;;2.00;;
20966;SDS011;10642;50.682;18.510;2022-09-09T15:47:57;3.50;;;1.77;;
20966;SDS011;10642;50.682;18.510;2022-09-09T15:50:24;3.23;;;1.80;;
20966;SDS011;10642;50.682;18.510;2022-09-09T15:52:52;5.73;;;2.30;;
20966;SDS011;10642;50.682;18.510;2022-09-09T15:55:19;2.70;;;1.93;;
20966;SDS011;10642;50.682;18.510;2022-09-09T15:57:50;4.23;;;1.90;;
20966;SDS011;10642;50.682;18.510;2022-09-09T16:00:19;2.80;;;1.70;;
20966;SDS011;10642;50.682;18.510;2022-09-09T16:02:47;4.37;;;1.60;;
20966;SDS011;10642;50.682;18.510;2022-09-09T16:05:14;5.87;;;2.03;;
20966;SDS011;10642;50.682;18.510;2022-09-09T16:07:41;6.20;;;1.83;;
20966;SDS011;10642;50.682;18.510;2022-09-09T16:10:09;6.73;;;3.63;;
20966;SDS011;10642;50.682;18.510;2022-09-09T16:12:36;3.87;;;1.83;;
20966;SDS011;10642;50.682;18.510;2022-09-09T16:15:03;2.57;;;1.70;;
20966;SDS011;10642;50.682;18.510;2022-09-09T16:17:30;4.63;;;1.77;;
20966;SDS011;10642;50.682;18.510;2022-09-09T16:19:57;6.47;;;2.00;;
20966;SDS011;10642;50.682;18.510;2022-09-09T16:22:24;8.27;;;2.20;;
20966;SDS011;10642;50.682;18.510;2022-09-09T16:24:51;3.27;;;2.03;;
20966;SDS011;10642;50.682;18.510;2022-09-09T16:27:17;4.40;;;1.83;;
20966;SDS011;10642;50.682;18.510;2022-09-09T16:29:44;5.40;;;2.30;;
20966;SDS011;10642;50.682;18.510;2022-09-09T16:32:11;7.73;;;2.57;;
20966;SDS011;10642;50.682;18.510;2022-09-09T16:34:38;8.67;;;2.50;;
20966;SDS011;10642;50.682;18.510;2022-09-09T16:37:06;6.00;;;2.50;;
20966;SDS011;10642;50.682;18.510;2022-09-09T16:39:33;6.67;;;1.93;;
20966;SDS011;10642;50.682;18.510;2022-09-09T16:42:00;5.97;;;2.37;;
20966;SDS011;10642;50.682;18.510;2022-09-09T16:44:27;3.03;;;2.20;;
20966;SDS011;10642;50.682;18.510;2022-09-09T16:46:54;5.87;;;2.50;;
20966;SDS011;10642;50.682;18.510;2022-09-09T16:49:26;7.00;;;2.50;;
20966;SDS011;10642;50.682;18.510;2022-09-09T16:51:56;6.50;;;2.13;;
20966;SDS011;10642;50.682;18.510;2022-09-09T16:54:23;4.30;;;2.87;;
20966;SDS011;10642;50.682;18.510;2022-09-09T16:56:53;8.83;;;3.57;;
20966;SDS011;10642;50.682;18.510;2022-09-09T16:59:21;8.00;;;4.07;;
20966;SDS011;10642;50.682;18.510;2022-09-09T17:01:49;8.57;;;4.87;;
20966;SDS011;10642;50.682;18.510;2022-09-09T17:04:24;9.80;;;4.07;;